createdAt,value
2022-08-05T00:00:46.735Z,100682.00
2022-08-05T00:03:16.555Z,100685.03
2022-08-05T00:06:05.468Z,100682.72
2022-08-05T00:08:35.163Z,100704.53
2022-08-05T00:11:07.494Z,100696.69
2022-08-05T00:13:46.963Z,100683.69
2022-08-05T00:16:20.110Z,100681.31
2022-08-05T00:19:03.969Z,100696.44
2022-08-05T00:21:30.757Z,100690.31
2022-08-05T00:24:10.311Z,100667.13
2022-08-05T00:26:38.015Z,100654.44
2022-08-05T00:29:04.510Z,100673.09
2022-08-05T00:31:53.933Z,100673.63
2022-08-05T00:34:56.994Z,100666.19
2022-08-05T00:37:10.761Z,100675.50
2022-08-05T00:39:44.338Z,100667.22
2022-08-05T00:42:35.472Z,100684.28
2022-08-05T00:45:05.587Z,100675.50
2022-08-05T00:47:56.381Z,100699.25
2022-08-05T00:50:21.383Z,100701.63
2022-08-05T00:52:51.977Z,100714.44
2022-08-05T00:55:19.805Z,100718.28
2022-08-05T00:57:58.179Z,100723.66
2022-08-05T01:00:26.247Z,100715.81
2022-08-05T01:02:52.731Z,100706.19
2022-08-05T01:05:19.391Z,100697.88
2022-08-05T01:08:29.909Z,100691.19
2022-08-05T01:10:52.216Z,100691.41
2022-08-05T01:13:27.079Z,100703.66
2022-08-05T01:15:58.637Z,100696.97
2022-08-05T01:18:29.858Z,100700.19
2022-08-05T01:21:00.380Z,100687.59
2022-08-05T01:23:35.930Z,100680.97
2022-08-05T01:26:05.372Z,100675.19
2022-08-05T01:28:34.921Z,100680.06
2022-08-05T01:31:21.556Z,100678.16
2022-08-05T01:34:01.481Z,100676.34
2022-08-05T01:36:31.114Z,100668.00
2022-08-05T01:39:00.138Z,100667.16
2022-08-05T01:41:29.537Z,100660.22
2022-08-05T01:43:56.407Z,100644.41
2022-08-05T01:46:43.161Z,100647.69
2022-08-05T01:49:23.675Z,100636.84
2022-08-05T01:51:54.092Z,100645.72
2022-08-05T01:54:25.630Z,100640.59
2022-08-05T01:58:10.036Z,100637.38
2022-08-05T01:59:41.860Z,100636.22
2022-08-05T02:02:14.059Z,100631.94
2022-08-05T02:04:43.296Z,100632.91
2022-08-05T02:07:21.626Z,100636.72
2022-08-05T02:09:50.962Z,100624.91
2022-08-05T02:12:25.549Z,100623.94
2022-08-05T02:15:05.500Z,100628.50
2022-08-05T02:18:33.259Z,100622.56
2022-08-05T02:20:23.374Z,100617.88
2022-08-05T02:22:58.519Z,100615.53
2022-08-05T02:25:27.719Z,100605.69
2022-08-05T02:28:00.663Z,100596.94
2022-08-05T02:30:30.823Z,100592.56
2022-08-05T02:32:58.625Z,100594.84
2022-08-05T02:35:28.138Z,100606.31
2022-08-05T02:38:00.436Z,100617.44
2022-08-05T02:40:29.386Z,100611.66
2022-08-05T02:42:56.318Z,100616.06
2022-08-05T02:45:25.268Z,100608.56
2022-08-05T02:48:06.878Z,100618.69
2022-08-05T02:50:39.143Z,100621.34
2022-08-05T02:53:11.982Z,100624.09
2022-08-05T02:55:54.300Z,100638.94
2022-08-05T02:58:23.081Z,100619.94
2022-08-05T03:00:55.146Z,100622.34
2022-08-05T03:03:23.633Z,100626.56
2022-08-05T03:06:55.041Z,100613.69
2022-08-05T03:08:38.060Z,100620.84
2022-08-05T03:11:54.625Z,100618.66
2022-08-05T03:14:08.652Z,100605.53
2022-08-05T03:16:39.642Z,100604.53
2022-08-05T03:19:17.050Z,100601.47
2022-08-05T03:21:52.405Z,100593.06
2022-08-05T03:24:29.647Z,100596.91
2022-08-05T03:26:56.891Z,100603.03
2022-08-05T03:29:23.839Z,100609.34
2022-08-05T03:31:57.036Z,100611.66
2022-08-05T03:34:27.944Z,100623.53
2022-08-05T03:36:55.141Z,100632.19
2022-08-05T03:39:27.005Z,100618.72
2022-08-05T03:41:56.121Z,100637.34
2022-08-05T03:44:23.011Z,100630.50
2022-08-05T03:46:49.370Z,100637.25
2022-08-05T03:49:15.794Z,100640.94
2022-08-05T03:52:50.386Z,100634.47
2022-08-05T03:54:59.986Z,100619.16
2022-08-05T03:57:19.135Z,100637.50
2022-08-05T03:59:55.022Z,100620.91
2022-08-05T04:02:39.105Z,100614.34
2022-08-05T04:05:11.758Z,100597.91
2022-08-05T04:07:53.160Z,100589.44
2022-08-05T04:10:27.724Z,100598.00
2022-08-05T04:12:54.982Z,100620.81
2022-08-05T04:15:21.366Z,100620.72
2022-08-05T04:17:56.189Z,100630.50
2022-08-05T04:20:24.180Z,100632.53
2022-08-05T04:22:50.569Z,100628.22
2022-08-05T04:25:16.980Z,100622.19
2022-08-05T04:27:57.430Z,100594.03
2022-08-05T04:30:26.503Z,100581.56
2022-08-05T04:32:53.096Z,100570.56
2022-08-05T04:35:20.027Z,100604.13
2022-08-05T04:38:00.946Z,100619.84
2022-08-05T04:40:29.423Z,100627.13
2022-08-05T04:42:55.878Z,100633.22
2022-08-05T04:45:48.336Z,100638.91
2022-08-05T04:48:18.448Z,100634.66
2022-08-05T04:51:01.452Z,100648.97
2022-08-05T04:53:29.603Z,100681.56
2022-08-05T04:56:33.656Z,100697.50
2022-08-05T04:58:46.369Z,100706.53
2022-08-05T05:01:13.391Z,100707.81
2022-08-05T05:03:41.807Z,100726.09
2022-08-05T05:06:39.232Z,100744.22
2022-08-05T05:08:59.128Z,100774.22
2022-08-05T05:11:41.393Z,100760.44
2022-08-05T05:14:16.113Z,100726.88
2022-08-05T05:16:42.799Z,100711.34
2022-08-05T05:19:18.672Z,100712.09
2022-08-05T05:21:46.405Z,100726.91
2022-08-05T05:24:14.128Z,100689.38
2022-08-05T05:26:46.510Z,100653.72
2022-08-05T05:29:15.003Z,100662.25
2022-08-05T05:31:41.502Z,100649.84
2022-08-05T05:34:12.912Z,100668.03
2022-08-05T05:36:41.848Z,100740.50
2022-08-05T05:39:09.483Z,100795.63
2022-08-05T05:41:40.363Z,100806.41
2022-08-05T05:44:36.831Z,100801.50
2022-08-05T05:46:53.748Z,100774.88
2022-08-05T05:49:23.382Z,100774.03
2022-08-05T05:51:50.749Z,100779.38
2022-08-05T05:54:19.867Z,100791.47
2022-08-05T05:56:46.347Z,100786.47
2022-08-05T05:59:13.763Z,100785.53
2022-08-05T06:01:41.106Z,100784.75
2022-08-05T06:04:24.352Z,100793.66
2022-08-05T06:06:50.705Z,100808.91
2022-08-05T06:09:26.664Z,100801.50
2022-08-05T06:12:04.873Z,100783.63
2022-08-05T06:14:31.733Z,100790.88
2022-08-05T06:16:58.931Z,100783.97
2022-08-05T06:19:26.049Z,100789.94
2022-08-05T06:22:00.746Z,100787.13
2022-08-05T06:24:27.391Z,100785.06
2022-08-05T06:26:53.841Z,100789.38
2022-08-05T06:29:43.225Z,100779.97
2022-08-05T06:32:26.357Z,100774.44
2022-08-05T06:34:56.793Z,100757.09
2022-08-05T06:37:56.656Z,100730.06
2022-08-05T06:40:10.892Z,100700.03
2022-08-05T06:42:39.921Z,100696.19
2022-08-05T06:45:08.820Z,100702.88
2022-08-05T06:48:35.870Z,100707.53
2022-08-05T06:50:21.833Z,100705.13
2022-08-05T06:53:03.605Z,100712.59
2022-08-05T06:55:36.186Z,100720.66
2022-08-05T06:58:20.162Z,100723.56
2022-08-05T07:00:49.549Z,100711.06
2022-08-05T07:03:16.673Z,100712.03
2022-08-05T07:05:43.282Z,100723.75
2022-08-05T07:08:10.750Z,100698.34
2022-08-05T07:10:37.790Z,100697.13
2022-08-05T07:13:55.068Z,100706.41
2022-08-05T07:17:56.272Z,100705.75
2022-08-05T07:19:16.155Z,100712.44
2022-08-05T07:22:02.612Z,100724.56
2022-08-05T07:24:30.004Z,100712.25
2022-08-05T07:26:56.418Z,100712.13
2022-08-05T07:30:21.775Z,100720.38
2022-08-05T07:32:09.148Z,100740.34
2022-08-05T07:34:40.445Z,100749.91
2022-08-05T07:37:11.470Z,100725.78
2022-08-05T07:40:04.770Z,100724.94
2022-08-05T07:42:31.857Z,100733.19
2022-08-05T07:45:03.270Z,100733.13
2022-08-05T07:47:41.975Z,100730.72
2022-08-05T07:50:09.293Z,100735.03
2022-08-05T07:52:39.901Z,100727.66
2022-08-05T07:55:15.693Z,100733.19
2022-08-05T07:58:02.166Z,100726.75
2022-08-05T08:00:29.631Z,100721.47
2022-08-05T08:03:14.190Z,100727.75
2022-08-05T08:05:47.560Z,100734.34
2022-08-05T08:08:16.766Z,100724.69
2022-08-05T08:10:48.888Z,100719.75
2022-08-05T08:13:15.460Z,100710.44
2022-08-05T08:16:34.974Z,100715.94
2022-08-05T08:18:34.939Z,100720.19
2022-08-05T08:21:04.900Z,100713.88
2022-08-05T08:24:01.409Z,100715.63
2022-08-05T08:26:29.797Z,100707.44
2022-08-05T08:29:02.059Z,100701.16
2022-08-05T08:31:44.979Z,100704.09
2022-08-05T08:34:11.346Z,100710.75
2022-08-05T08:36:50.571Z,100709.44
2022-08-05T08:39:19.377Z,100719.84
2022-08-05T08:41:52.511Z,100731.63
2022-08-05T08:45:17.684Z,100728.78
2022-08-05T08:47:47.034Z,100741.00
2022-08-05T08:50:08.873Z,100751.13
2022-08-05T08:52:52.967Z,100760.84
2022-08-05T08:56:01.688Z,100754.59
2022-08-05T08:58:06.537Z,100762.66
2022-08-05T09:00:35.099Z,100764.28
2022-08-05T09:03:03.224Z,100776.25
2022-08-05T09:05:38.495Z,100763.84
2022-08-05T09:08:17.336Z,100774.25
2022-08-05T09:10:46.867Z,100767.88
2022-08-05T09:13:14.573Z,100765.09
2022-08-05T09:15:42.276Z,100751.13
2022-08-05T09:18:09.495Z,100752.41
2022-08-05T09:20:37.650Z,100764.78
2022-08-05T09:23:18.306Z,100778.25
2022-08-05T09:26:00.228Z,100768.31
2022-08-05T09:28:32.125Z,100768.91
2022-08-05T09:31:18.220Z,100763.63
2022-08-05T09:33:54.842Z,100754.16
2022-08-05T09:36:27.898Z,100753.59
2022-08-05T09:39:18.049Z,100760.75
2022-08-05T09:42:00.736Z,100748.66
2022-08-05T09:44:41.089Z,100752.16
2022-08-05T09:47:14.086Z,100750.88
2022-08-05T09:50:01.315Z,100758.44
2022-08-05T09:52:30.148Z,100757.94
2022-08-05T09:55:55.175Z,100748.25
2022-08-05T09:57:47.656Z,100747.53
2022-08-05T10:00:15.764Z,100742.53
2022-08-05T10:02:46.932Z,100753.47
2022-08-05T10:05:20.437Z,100768.63
2022-08-05T10:08:36.136Z,100761.78
2022-08-05T10:10:43.874Z,100745.56
2022-08-05T10:13:10.299Z,100753.34
2022-08-05T10:15:38.590Z,100762.00
2022-08-05T10:18:10.524Z,100763.16
2022-08-05T10:20:39.173Z,100763.84
2022-08-05T10:23:08.935Z,100764.19
2022-08-05T10:26:01.890Z,100743.06
2022-08-05T10:28:30.538Z,100744.13
2022-08-05T10:32:49.351Z,100750.31
2022-08-05T10:36:11.357Z,100746.94
2022-08-05T10:41:23.477Z,100756.75
2022-08-05T10:43:53.062Z,100757.56
2022-08-05T10:46:24.128Z,100763.59
2022-08-05T10:48:57.923Z,100763.09
2022-08-05T10:51:59.656Z,100773.84
2022-08-05T10:54:46.960Z,100768.41
2022-08-05T10:57:29.673Z,100773.06
2022-08-05T11:00:12.024Z,100772.16
2022-08-05T11:03:24.834Z,100777.16
2022-08-05T11:06:08.618Z,100784.06
2022-08-05T11:09:02.886Z,100777.47
2022-08-05T11:11:52.707Z,100776.94
2022-08-05T11:18:09.746Z,100774.59
2022-08-05T11:20:30.313Z,100768.13
2022-08-05T11:23:01.971Z,100770.81
2022-08-05T11:26:04.555Z,100778.75
2022-08-05T11:28:18.772Z,100780.91
2022-08-05T11:31:06.470Z,100790.66
2022-08-05T11:33:46.041Z,100796.94
2022-08-05T11:36:16.107Z,100800.34
2022-08-05T11:39:01.344Z,100806.28
2022-08-05T11:41:57.989Z,100813.25
2022-08-05T11:44:40.201Z,100821.94
2022-08-05T11:47:14.061Z,100822.91
2022-08-05T11:49:43.280Z,100830.38
2022-08-05T11:52:23.040Z,100830.38
2022-08-05T11:54:56.429Z,100815.94
2022-08-05T11:57:27.898Z,100814.38
2022-08-05T11:59:57.639Z,100819.25
2022-08-05T12:02:31.838Z,100817.78
2022-08-05T12:05:00.158Z,100829.84
2022-08-05T12:08:04.413Z,100845.97
2022-08-05T12:10:20.814Z,100847.16
2022-08-05T12:12:59.585Z,100849.63
2022-08-05T12:15:35.783Z,100853.31
2022-08-05T12:18:10.936Z,100855.66
2022-08-05T12:20:38.883Z,100854.44
2022-08-05T12:23:11.725Z,100869.63
2022-08-05T12:25:56.410Z,100860.66
2022-08-05T12:28:37.032Z,100865.16
2022-08-05T12:31:04.574Z,100872.22
2022-08-05T12:33:36.244Z,100865.50
2022-08-05T12:36:07.930Z,100875.50
2022-08-05T12:38:39.735Z,100874.03
2022-08-05T12:41:14.028Z,100879.53
2022-08-05T12:43:51.355Z,100874.50
2022-08-05T12:46:29.588Z,100879.09
2022-08-05T12:49:13.449Z,100880.72
2022-08-05T12:52:13.514Z,100889.16
2022-08-05T12:54:47.064Z,100878.34
2022-08-05T12:57:16.191Z,100884.97
2022-08-05T13:00:08.899Z,100880.78
2022-08-05T13:02:32.035Z,100891.06
2022-08-05T13:04:58.717Z,100885.44
2022-08-05T13:07:57.594Z,100890.94
2022-08-05T13:10:13.899Z,100905.63
2022-08-05T13:12:50.647Z,100901.78
2022-08-05T13:15:35.966Z,100901.59
2022-08-05T13:18:08.391Z,100906.81
2022-08-05T13:20:35.574Z,100909.75
2022-08-05T13:23:07.369Z,100888.13
2022-08-05T13:25:52.502Z,100893.75
2022-08-05T13:28:21.858Z,100899.78
2022-08-05T13:30:48.772Z,100892.41
2022-08-05T13:34:21.873Z,100899.47
2022-08-05T13:36:05.238Z,100899.41
2022-08-05T13:38:36.338Z,100902.34
2022-08-05T13:41:08.722Z,100900.72
2022-08-05T13:43:44.219Z,100905.56
2022-08-05T13:46:35.731Z,100908.97
2022-08-05T13:49:05.513Z,100917.38
2022-08-05T13:51:41.214Z,100928.03
2022-08-05T13:54:12.443Z,100931.41
2022-08-05T13:56:40.043Z,100937.22
2022-08-05T13:59:20.307Z,100937.78
2022-08-05T14:01:57.608Z,100938.28
2022-08-05T14:04:51.997Z,100942.16
2022-08-05T14:07:56.477Z,100937.00
2022-08-05T14:10:08.468Z,100944.88
2022-08-05T14:12:35.458Z,100942.16
2022-08-05T14:15:05.998Z,100953.41
2022-08-05T14:17:48.399Z,100961.56
2022-08-05T14:20:18.380Z,100952.69
2022-08-05T14:22:50.178Z,100954.56
2022-08-05T14:25:21.745Z,100963.78
2022-08-05T14:27:49.452Z,100955.31
2022-08-05T14:30:20.363Z,100964.25
2022-08-05T14:32:47.336Z,100973.56
2022-08-05T14:35:13.679Z,100971.69
2022-08-05T14:37:48.220Z,100973.03
2022-08-05T14:40:16.777Z,100979.34
2022-08-05T14:42:44.124Z,100976.75
2022-08-05T14:45:13.963Z,100990.28
2022-08-05T14:48:03.574Z,100991.38
2022-08-05T14:50:28.400Z,100991.00
2022-08-05T14:52:59.206Z,100983.38
2022-08-05T14:55:38.434Z,100981.78
2022-08-05T14:58:11.907Z,100986.97
2022-08-05T15:00:39.448Z,101003.97
2022-08-05T15:03:25.508Z,101010.19
2022-08-05T15:06:13.102Z,100995.28
2022-08-05T15:09:01.412Z,100996.97
2022-08-05T15:11:24.848Z,101013.72
2022-08-05T15:14:11.349Z,101021.03
2022-08-05T15:16:47.134Z,101023.06
2022-08-05T15:19:23.263Z,101009.75
2022-08-05T15:21:50.414Z,101033.03
2022-08-05T15:24:17.176Z,101024.06
2022-08-05T15:26:43.754Z,101014.50
2022-08-05T15:29:10.994Z,101017.00
2022-08-05T15:31:37.722Z,101020.38
2022-08-05T15:34:32.550Z,101023.63
2022-08-05T15:36:51.775Z,101012.38
2022-08-05T15:40:58.916Z,101032.84
2022-08-05T15:42:53.478Z,101044.19
2022-08-05T15:47:58.358Z,101052.84
2022-08-05T15:50:26.709Z,101042.50
2022-08-05T15:53:01.866Z,101055.41
2022-08-05T15:56:02.298Z,101060.91
2022-08-05T15:58:17.264Z,101054.75
2022-08-05T16:00:51.037Z,101052.75
2022-08-05T16:03:30.565Z,101075.59
2022-08-05T16:05:59.238Z,101082.00
2022-08-05T16:08:30.403Z,101084.28
2022-08-05T16:10:57.731Z,101083.16
2022-08-05T16:13:24.170Z,101084.03
2022-08-05T16:16:00.862Z,101086.50
2022-08-05T16:18:28.040Z,101089.63
2022-08-05T16:20:55.608Z,101103.97
2022-08-05T16:23:22.181Z,101098.50
2022-08-05T16:25:53.287Z,101098.53
2022-08-05T16:28:22.336Z,101102.59
2022-08-05T16:30:52.047Z,101106.09
2022-08-05T16:33:19.325Z,101100.25
2022-08-05T16:35:48.798Z,101107.31
2022-08-05T16:38:25.084Z,101112.56
2022-08-05T16:41:00.141Z,101120.91
2022-08-05T16:43:28.525Z,101116.16
2022-08-05T16:46:04.638Z,101129.59
2022-08-05T16:48:35.900Z,101130.41
2022-08-05T16:51:02.466Z,101129.63
2022-08-05T16:54:04.085Z,101131.59
2022-08-05T16:56:21.650Z,101141.19
2022-08-05T16:58:50.050Z,101152.34
2022-08-05T17:01:16.670Z,101157.19
2022-08-05T17:03:45.091Z,101152.81
2022-08-05T17:06:11.681Z,101146.09
2022-08-05T17:08:53.582Z,101158.41
2022-08-05T17:11:23.418Z,101155.69
2022-08-05T17:13:51.556Z,101161.56
2022-08-05T17:16:33.004Z,101176.72
2022-08-05T17:19:00.270Z,101172.00
2022-08-05T17:21:35.680Z,101172.81
2022-08-05T17:24:19.909Z,101189.03
2022-08-05T17:26:49.983Z,101175.56
2022-08-05T17:29:17.136Z,101179.97
2022-08-05T17:31:58.353Z,101185.91
2022-08-05T17:34:30.262Z,101184.34
2022-08-05T17:36:59.372Z,101194.28
2022-08-05T17:39:33.516Z,101196.22
2022-08-05T17:42:19.030Z,101191.09
2022-08-05T17:44:50.297Z,101204.56
2022-08-05T17:47:21.765Z,101201.03
2022-08-05T17:49:59.801Z,101192.69
2022-08-05T17:52:31.329Z,101198.25
2022-08-05T17:54:57.845Z,101200.22
2022-08-05T18:00:05.472Z,101189.50
2022-08-05T18:02:35.338Z,101208.16
2022-08-05T18:05:06.287Z,101210.94
2022-08-05T18:07:41.157Z,101211.34
2022-08-05T18:10:10.281Z,101223.63
2022-08-05T18:12:37.306Z,101224.03
2022-08-05T18:15:04.047Z,101235.53
2022-08-05T18:18:01.355Z,101243.88
2022-08-05T18:20:19.423Z,101256.19
2022-08-05T18:22:57.348Z,101255.38
2022-08-05T18:25:25.071Z,101265.69
2022-08-05T18:27:52.507Z,101249.00
2022-08-05T18:30:19.511Z,101251.81
2022-08-05T18:32:53.356Z,101237.47
2022-08-05T18:35:28.408Z,101250.97
2022-08-05T18:38:13.425Z,101251.81
2022-08-05T18:41:53.942Z,101262.09
2022-08-05T18:43:31.635Z,101250.44
2022-08-05T18:46:04.673Z,101252.88
2022-08-05T18:48:33.192Z,101258.88
2022-08-05T18:52:05.202Z,101248.13
2022-08-05T18:54:05.566Z,101253.28
2022-08-05T18:56:32.301Z,101261.22
2022-08-05T18:59:01.068Z,101273.56
2022-08-05T19:01:47.297Z,101271.50
2022-08-05T19:04:14.273Z,101269.50
2022-08-05T19:06:50.677Z,101282.22
2022-08-05T19:09:18.631Z,101288.16
2022-08-05T19:11:59.397Z,101295.25
2022-08-05T19:14:37.707Z,101300.81
2022-08-05T19:17:14.527Z,101299.63
2022-08-05T19:19:46.464Z,101306.03
2022-08-05T19:22:22.736Z,101309.13
2022-08-05T19:24:56.486Z,101310.72
2022-08-05T19:27:24.106Z,101310.34
2022-08-05T19:29:58.363Z,101308.03
2022-08-05T19:32:26.144Z,101306.34
2022-08-05T19:34:55.317Z,101313.88
2022-08-05T19:37:35.092Z,101314.75
2022-08-05T19:40:10.228Z,101317.13
2022-08-05T19:42:37.130Z,101319.03
2022-08-05T19:45:07.069Z,101327.88
2022-08-05T19:47:34.518Z,101328.69
2022-08-05T19:50:03.877Z,101327.84
2022-08-05T19:52:32.685Z,101327.31
2022-08-05T19:55:00.452Z,101333.41
2022-08-05T19:57:47.708Z,101337.69
2022-08-05T20:00:20.821Z,101333.78
2022-08-05T20:02:47.524Z,101334.53
2022-08-05T20:05:16.493Z,101332.22
2022-08-05T20:07:53.890Z,101338.56
2022-08-05T20:10:24.518Z,101334.44
2022-08-05T20:12:51.731Z,101339.28
2022-08-05T20:15:48.663Z,101333.22
2022-08-05T20:18:10.114Z,101328.97
2022-08-05T20:20:55.021Z,101332.03
2022-08-05T20:23:22.117Z,101339.59
2022-08-05T20:25:48.582Z,101334.84
2022-08-05T20:28:18.578Z,101342.78
2022-08-05T20:30:45.001Z,101341.13
2022-08-05T20:33:11.553Z,101334.66
2022-08-05T20:35:45.254Z,101343.53
2022-08-05T20:38:20.181Z,101339.16
2022-08-05T20:40:50.498Z,101339.19
2022-08-05T20:43:17.296Z,101338.28
2022-08-05T20:46:00.280Z,101347.03
2022-08-05T20:48:26.946Z,101353.78
2022-08-05T20:50:53.430Z,101355.66
2022-08-05T20:53:36.783Z,101358.53
2022-08-05T20:56:08.783Z,101361.97
2022-08-05T20:58:35.703Z,101363.31
2022-08-05T21:01:03.519Z,101361.22
2022-08-05T21:03:34.194Z,101364.63
2022-08-05T21:06:01.649Z,101370.63
2022-08-05T21:08:41.315Z,101369.44
2022-08-05T21:11:11.644Z,101373.50
2022-08-05T21:13:47.501Z,101383.44
2022-08-05T21:16:22.502Z,101386.03
2022-08-05T21:18:55.651Z,101404.81
2022-08-05T21:21:26.909Z,101403.22
2022-08-05T21:24:13.008Z,101409.88
2022-08-05T21:26:39.783Z,101403.06
2022-08-05T21:29:10.157Z,101404.22
2022-08-05T21:31:41.616Z,101406.81
2022-08-05T21:34:08.422Z,101415.72
2022-08-05T21:36:37.091Z,101417.47
2022-08-05T21:39:03.735Z,101424.25
2022-08-05T21:41:34.080Z,101419.44
2022-08-05T21:44:04.227Z,101411.88
2022-08-05T21:46:34.225Z,101417.94
2022-08-05T21:49:01.633Z,101419.84
2022-08-05T21:52:16.638Z,101419.19
2022-08-05T21:54:14.530Z,101426.31
2022-08-05T21:56:44.643Z,101434.09
2022-08-05T21:59:24.307Z,101425.06
2022-08-05T22:01:54.323Z,101431.25
2022-08-05T22:04:21.191Z,101427.19
2022-08-05T22:06:52.038Z,101433.63
2022-08-05T22:09:21.152Z,101442.16
2022-08-05T22:11:48.278Z,101441.56
2022-08-05T22:14:35.436Z,101447.38
2022-08-05T22:17:03.428Z,101455.31
2022-08-05T22:20:01.317Z,101466.69
2022-08-05T22:22:27.226Z,101457.81
2022-08-05T22:25:21.678Z,101471.22
2022-08-05T22:28:09.953Z,101471.16
2022-08-05T22:30:55.315Z,101469.09
2022-08-05T22:33:55.499Z,101469.41
2022-08-05T22:36:08.692Z,101470.25
2022-08-05T22:38:36.543Z,101475.06
2022-08-05T22:41:09.841Z,101482.19
2022-08-05T22:43:38.166Z,101495.53
2022-08-05T22:46:13.119Z,101499.81
2022-08-05T22:48:40.420Z,101503.16
2022-08-05T22:51:07.566Z,101488.75
2022-08-05T22:53:35.778Z,101487.97
2022-08-05T22:56:02.567Z,101497.53
2022-08-05T22:58:28.931Z,101501.47
2022-08-05T23:00:57.054Z,101505.72
2022-08-05T23:03:57.940Z,101506.03
2022-08-05T23:06:10.148Z,101530.16
2022-08-05T23:08:36.614Z,101524.66
2022-08-05T23:11:02.989Z,101519.34
2022-08-05T23:13:29.440Z,101525.00
2022-08-05T23:15:56.134Z,101531.91
2022-08-05T23:18:22.894Z,101530.41
2022-08-05T23:20:49.438Z,101539.16
2022-08-05T23:23:15.826Z,101533.94
2022-08-05T23:25:51.588Z,101540.69
2022-08-05T23:28:20.979Z,101539.41
2022-08-05T23:30:53.959Z,101542.38
2022-08-05T23:33:22.215Z,101545.22
2022-08-05T23:35:52.554Z,101544.56
2022-08-05T23:38:22.791Z,101548.59
2022-08-05T23:40:50.613Z,101557.16
2022-08-05T23:43:24.811Z,101554.22
2022-08-05T23:46:03.769Z,101551.16
2022-08-05T23:48:30.118Z,101552.19
2022-08-05T23:50:56.500Z,101556.00
2022-08-05T23:53:28.331Z,101555.16
2022-08-05T23:56:11.539Z,101557.06
2022-08-05T23:58:38.342Z,101558.63
